Aérodrome :
LOGIN :

S'inscrire | Disclaimer

   EN    FR    IT 

 










Légende :    VFR   VFR Marginal   IFR   IFR Intensif   IFR Très Intensif
Visi : 
Plafond : 
>= 8 km
>= 3000ft
5 à 8 km
1000 à 3000 ft
1500m à 5 km
500 à 1000 ft
800 à 1500m
200 à 500 ft
< 800m
< 200 ft
Symboles :   Orages  Brouillard  Fortes neiges  Fortes précipitations  Vent > 20 kt
SIGMETs :   Divers  Orages  Givrage  Turbulence  Onde Orograph.  Cendres Volcan.






- Altitude de l'aérodrome : 55 ft


EGNO - Warton Preston

DERNIER METAR :
  • 100950Z 16014KT 9000 -RA FEW010 BKN024 08/07 Q1003

METARs EXPIRÉS :
  • 100920Z 16015KT 9000 -RA BKN024 08/07 Q1004
  • 100850Z 16014G24KT 8000 -RA SCT024 BKN044 07/06 Q1005
  • 100820Z 16017KT 9999 BKN026 07/05 Q1006
  • 100750Z 16014KT 9999 BKN029 06/05 Q1007
  • 100720Z 16015KT 9999 BKN031 06/04 Q1007

TAF TAF EGNO
Valide du 10 à 09h jusqu'au 10 à 18h UTC


100806Z 1009/1018 16018G30KT 9999 FEW030
TEMPO 1009/1018 8000 RA BKN014
PROB40
TEMPO 1009/1015 17025G42KT
PROB30
TEMPO 1012/1015 4000 +RA BKN009
ATIS : +44 1772 856 060



MET'MAP, la Météo Aéronautique d'un coup d'oeil ! - Copyright ORBIFLY Décembre 2007 - Disclaimer

ORBIFLY MET'MAP TEAM :

Programmation & Développement : Alexandra Zaïnal
Sur une idée originale de : Baudouin d'Aumeries
Assistance à la programmation : Marc-Olivier Méhu
Soutien technique & logistique : Manuel Goepfert

Contact : metmap@orbifly.com




SOURCES & CREDITS :

   NOAA